White Cap, Mississippi
Current Conditions -  °F | °C
As of 3:53 AM on Saturday 20 Dec 2014 (Local Time) from KMCB Reporting Station
Overcast Overcast  
Wind Chill: 41°   Ceiling: 500
Heat Index: 46°   Visibility: 9mi
Dew Point: 43°   Wind: 9mph
Humidity: 89%   Direction: 20°NNE
Pressure: 30.12"   Gusts: NA
Location:  31.1819°N, 90.9008°W
Report Text: KMCB 200953Z AUTO 02008KT 9SM OVC005 08/06 A3012 RMK AO2 SLP200 T00780061
Loading
Personal Weather Stations






























Interactive Weather Map New forecast layout! Learn more

10-Day Weather Forecast

Advertisements
Track Severe Weather on mobile